Terminal Aerodrome Forecast
Issued by NWS Brownsville, TX

Home | Current Version | Previous Version | Text Only | Print | Product List | Glossary On
Versions: 1 2 3 4 5 6 7 8 9 10 11 12 13 14 15 16 17 18 19 20 21 22 23 24 25 26 27 28 29 30 31 32 33 34
000
FTUS44 KBRO 162300
TAFMFE
TAF
KMFE 162336Z 1700/1724 00000KT P6SM FEW035 BKN250
     FM170300 14007KT P6SM OVC030
      TEMPO 1703/1706 5SM -SHRA OVC025
     FM170900 14006KT P6SM OVC100
     FM171500 15009KT P6SM BKN050 PROB30 1718/1721 5SM -TSRA
      BKN040CB
     FM172100 13013KT P6SM VCSH BKN050 PROB30 1721/1724 5SM -TSRA
      BKN040CB=

USA.gov is the U.S. government's official web portal to all federal, state and local government web resources and services.